Qashlu, Yemen
Current Conditions -  °F | °C
As of 11:00 AM on Saturday 01 Nov 2014 (Local Time) from OYSQ Reporting Station
Scattered Clouds Scattered Clouds  
Wind Chill: 30°   Ceiling: Unl
Heat Index: 32°   Visibility: 6mi
Dew Point: 21°   Wind: 12mph
Humidity: 58%   Direction: 300°WNW
Pressure: 29.88"   Gusts: NA
Location:  12.61°N, 53.86°E
Report Text: OYSQ 010800Z 30010KT 9999 SCT018 30/21 Q1012
Loading
Personal Weather Stations






























Interactive Weather Map
Tropical Storm Tracking
New forecast layout! Learn more

10-Day Weather Forecast

Advertisements
Track Severe Weather on mobile